Time;durP1;ratioP1;P1;durP2;ratioP2;P2;SDS_P1;SDS_P2;PMS_P1;PMS_P2;Temp;Humidity;BMP_temperature;BMP_pressure;BME280_temperature;BME280_humidity;BME280_pressure;Samples;Min_cycle;Max_cycle;Signal;HPM_P1;HPM_P2
2022/07/15 00:00:13;;;;;;;;;;;;;;;16.62;78.98;98606.53;5064777;28;19928;-68
2022/07/15 00:02:39;;;;;;;;;;;;;;;16.68;78.45;98603.19;5063983;28;19928;-70
2022/07/15 00:05:06;;;;;;;;;;;;;;;16.69;78.79;98606.75;5064787;28;19974;-70
2022/07/15 00:07:32;;;;;;;;;;;;;;;16.64;78.56;98599.53;5063694;28;20599;-70
2022/07/15 00:10:18;;;;;;;;;;;;;;;16.64;78.57;98609.75;5064290;28;20031;-70
2022/07/15 00:12:45;;;;;;;;;;;;;;;16.64;78.05;98612.50;5063129;28;19932;-70
2022/07/15 00:15:12;;;;;;;;;;;;;;;16.57;78.63;98600.09;5065214;28;20343;-70
2022/07/15 00:17:38;;;;;;;;;;;;;;;16.53;78.51;98607.44;5064540;28;19934;-70
2022/07/15 00:20:05;;;;;;;;;;;;;;;16.50;78.55;98604.56;5066901;28;19933;-70
2022/07/15 00:22:31;;;;;;;;;;;;;;;16.49;78.25;98609.28;5066444;28;20071;-70
2022/07/15 00:24:57;;;;;;;;;;;;;;;16.48;78.33;98601.34;5061924;28;20398;-70
2022/07/15 00:27:23;;;;;;;;;;;;;;;16.50;78.32;98618.38;5064981;28;19929;-70
2022/07/15 00:29:48;;;;;;;;;;;;;;;16.50;77.94;98619.16;5064534;28;19939;-70
2022/07/15 00:32:16;;;;;;;;;;;;;;;16.47;77.63;98610.75;5046584;28;19958;-70
2022/07/15 00:34:42;;;;;;;;;;;;;;;16.42;77.81;98618.13;5065663;28;19928;-70
2022/07/15 00:37:07;;;;;;;;;;;;;;;16.40;78.03;98617.66;5073834;28;19934;-70
2022/07/15 00:39:33;;;;;;;;;;;;;;;16.47;77.76;98625.38;5067953;28;19928;-69
2022/07/15 00:41:59;;;;;;;;;;;;;;;16.53;77.33;98621.22;5061549;28;19928;-70
2022/07/15 00:44:25;;;;;;;;;;;;;;;16.53;77.18;98621.22;5062313;28;19928;-70
2022/07/15 00:46:51;;;;;;;;;;;;;;;16.55;77.11;98627.22;5047753;28;20013;-70
2022/07/15 00:49:18;;;;;;;;;;;;;;;16.51;76.53;98617.22;5085628;28;19928;-70
2022/07/15 00:51:45;;;;;;;;;;;;;;;16.51;76.37;98623.53;5082435;28;19939;-70
2022/07/15 00:54:13;;;;;;;;;;;;;;;16.50;75.95;98621.91;5065890;28;19982;-69
2022/07/15 00:56:41;;;;;;;;;;;;;;;16.47;75.63;98624.56;5062970;28;19929;-69
2022/07/15 00:59:09;;;;;;;;;;;;;;;16.45;75.89;98622.16;5062092;28;19932;-70
2022/07/15 01:01:35;;;;;;;;;;;;;;;16.49;75.83;98622.28;5044019;28;20311;-70
2022/07/15 01:04:02;;;;;;;;;;;;;;;16.52;75.46;98635.38;5043999;28;20392;-70
2022/07/15 01:06:29;;;;;;;;;;;;;;;16.53;75.54;98631.47;5045144;28;20384;-70
2022/07/15 01:08:55;;;;;;;;;;;;;;;16.56;75.40;98628.84;5053251;28;20356;-71
2022/07/15 01:11:21;;;;;;;;;;;;;;;16.55;75.75;98635.50;5063892;28;19935;-70
2022/07/15 01:13:47;;;;;;;;;;;;;;;16.56;75.94;98642.63;5064411;28;20399;-70
2022/07/15 01:16:13;;;;;;;;;;;;;;;16.48;76.05;98638.00;5064920;28;20095;-70
2022/07/15 01:18:39;;;;;;;;;;;;;;;16.43;76.41;98644.56;5064931;28;19928;-70
2022/07/15 01:21:08;;;;;;;;;;;;;;;16.34;76.45;98646.63;5063385;28;20023;-71
2022/07/15 01:23:36;;;;;;;;;;;;;;;16.25;76.67;98654.16;5046231;28;20087;-69
2022/07/15 01:26:07;;;;;;;;;;;;;;;16.22;77.41;98657.63;5063714;28;20397;-68
2022/07/15 01:28:33;;;;;;;;;;;;;;;16.24;77.50;98663.59;5064120;28;20023;-68
2022/07/15 01:30:59;;;;;;;;;;;;;;;16.28;77.26;98668.09;5048021;28;20466;-68
2022/07/15 01:33:29;;;;;;;;;;;;;;;16.29;77.39;98677.16;5062400;28;19952;-67
2022/07/15 01:35:55;;;;;;;;;;;;;;;16.30;77.47;98676.81;5046941;28;20449;-68
2022/07/15 01:38:24;;;;;;;;;;;;;;;16.32;77.54;98675.69;5063077;28;20464;-68
2022/07/15 01:40:57;;;;;;;;;;;;;;;16.33;78.08;98667.06;5065124;28;19935;-68
2022/07/15 01:43:23;;;;;;;;;;;;;;;16.31;78.02;98658.31;5062889;28;19928;-68
2022/07/15 01:45:49;;;;;;;;;;;;;;;16.42;77.69;98675.25;5062345;28;20383;-70
2022/07/15 01:51:29;;;;;;;;;;;;;;;16.56;77.57;98674.91;5064094;28;19935;-70
2022/07/15 01:53:56;;;;;;;;;;;;;;;16.54;77.62;98677.22;5056753;28;19936;-70
2022/07/15 01:56:23;;;;;;;;;;;;;;;16.50;77.78;98676.31;5062757;28;19935;-70
2022/07/15 01:58:48;;;;;;;;;;;;;;;16.48;78.14;98676.63;5065267;28;19929;-69
2022/07/15 02:01:14;;;;;;;;;;;;;;;16.42;78.74;98673.28;5063343;28;20438;-67
2022/07/15 02:03:40;;;;;;;;;;;;;;;16.36;78.95;98671.91;5063148;28;19928;-68
2022/07/15 02:06:06;;;;;;;;;;;;;;;16.23;79.36;98675.78;5064421;28;19935;-69
2022/07/15 02:08:32;;;;;;;;;;;;;;;16.08;80.11;98675.25;5071989;28;20023;-68
2022/07/15 02:11:00;;;;;;;;;;;;;;;15.98;80.57;98675.66;5064366;28;20023;-67
2022/07/15 02:13:26;;;;;;;;;;;;;;;15.91;81.00;98686.44;5032190;28;19935;-67
2022/07/15 02:16:16;;;;;;;;;;;;;;;15.84;81.52;98676.75;5050409;28;20009;-70
2022/07/15 02:18:42;;;;;;;;;;;;;;;15.78;81.61;98678.09;5062229;28;20395;-70
2022/07/15 02:21:08;;;;;;;;;;;;;;;15.76;81.92;98677.63;5044543;28;19929;-71
2022/07/15 02:23:34;;;;;;;;;;;;;;;15.69;82.25;98678.16;5062174;28;19928;-70
2022/07/15 02:26:01;;;;;;;;;;;;;;;15.78;82.22;98697.38;5061159;28;19932;-71
2022/07/15 02:28:27;;;;;;;;;;;;;;;15.81;81.77;98695.91;5061375;28;19928;-70
2022/07/15 02:30:54;;;;;;;;;;;;;;;15.85;82.11;98694.09;5059520;28;20483;-71
2022/07/15 02:33:20;;;;;;;;;;;;;;;15.85;82.19;98694.91;5062107;28;19929;-68
2022/07/15 02:35:46;;;;;;;;;;;;;;;15.83;82.02;98701.88;5061042;28;20485;-68
2022/07/15 02:38:12;;;;;;;;;;;;;;;15.78;82.54;98702.91;5061312;28;19928;-68
2022/07/15 02:40:38;;;;;;;;;;;;;;;15.77;82.58;98701.28;5063484;28;19936;-67
2022/07/15 02:43:05;;;;;;;;;;;;;;;15.81;82.50;98695.91;5063415;28;19936;-69
2022/07/15 02:45:34;;;;;;;;;;;;;;;15.80;82.47;98697.84;5061780;28;20018;-68
2022/07/15 02:48:02;;;;;;;;;;;;;;;15.79;82.25;98703.72;5062318;28;19928;-68
2022/07/15 02:50:32;;;;;;;;;;;;;;;15.77;82.07;98689.47;5030971;28;20043;-67
2022/07/15 02:52:59;;;;;;;;;;;;;;;15.73;82.20;98689.31;5061262;28;19928;-68
2022/07/15 02:55:26;;;;;;;;;;;;;;;15.75;82.22;98698.06;5060039;28;19928;-67
2022/07/15 02:57:52;;;;;;;;;;;;;;;15.75;81.94;98698.06;5062078;28;19928;-68
2022/07/15 03:00:20;;;;;;;;;;;;;;;15.76;81.81;98698.84;5064008;28;20340;-67
2022/07/15 03:02:48;;;;;;;;;;;;;;;15.70;81.67;98696.31;5062808;28;20379;-67
2022/07/15 03:05:14;;;;;;;;;;;;;;;15.69;81.73;98693.91;5062016;28;19929;-68
2022/07/15 03:07:41;;;;;;;;;;;;;;;15.76;81.51;98702.44;5060851;28;19928;-68
2022/07/15 03:10:08;;;;;;;;;;;;;;;15.84;80.87;98704.31;5060575;28;20397;-68
2022/07/15 03:12:33;;;;;;;;;;;;;;;15.88;80.62;98701.69;5061812;28;19928;-69
2022/07/15 03:14:59;;;;;;;;;;;;;;;16.01;80.34;98700.63;5043970;28;19973;-68
2022/07/15 03:17:27;;;;;;;;;;;;;;;16.13;79.24;98710.09;5062525;28;20489;-67
2022/07/15 03:19:55;;;;;;;;;;;;;;;16.35;78.71;98711.66;5046270;28;19929;-68
2022/07/15 03:22:21;;;;;;;;;;;;;;;16.56;77.40;98719.06;5060858;28;19928;-68
2022/07/15 03:24:48;;;;;;;;;;;;;;;16.71;76.81;98720.38;5046912;28;20234;-68
2022/07/15 03:27:14;;;;;;;;;;;;;;;16.77;76.02;98731.97;5061204;28;19928;-68
2022/07/15 03:29:42;;;;;;;;;;;;;;;16.82;75.66;98735.31;5063281;28;20046;-68
2022/07/15 03:32:10;;;;;;;;;;;;;;;16.85;74.92;98737.38;5043625;28;19934;-68
2022/07/15 03:34:39;;;;;;;;;;;;;;;16.85;74.45;98729.09;5063085;28;19929;-68
2022/07/15 03:37:05;;;;;;;;;;;;;;;16.77;75.02;98729.22;5059027;28;20038;-68
2022/07/15 03:39:30;;;;;;;;;;;;;;;16.73;74.73;98720.84;5061799;28;20023;-67
2022/07/15 03:41:57;;;;;;;;;;;;;;;16.72;74.90;98733.81;5061916;28;19929;-67
2022/07/15 03:44:22;;;;;;;;;;;;;;;16.84;74.16;98726.72;5062595;28;19935;-69
2022/07/15 03:46:48;;;;;;;;;;;;;;;17.01;73.64;98734.00;5061341;28;19928;-67
2022/07/15 03:49:15;;;;;;;;;;;;;;;17.10;72.88;98745.75;5058752;28;20031;-69
2022/07/15 03:51:43;;;;;;;;;;;;;;;17.12;72.67;98748.97;5064841;28;19982;-68
2022/07/15 03:54:10;;;;;;;;;;;;;;;17.03;72.96;98742.75;5048296;28;19935;-68
2022/07/15 03:56:36;;;;;;;;;;;;;;;16.95;72.91;98744.44;5065454;28;20312;-67
2022/07/15 03:59:03;;;;;;;;;;;;;;;17.01;73.07;98731.22;5065486;28;19970;-68
2022/07/15 04:01:29;;;;;;;;;;;;;;;17.10;72.72;98728.38;5063921;28;20395;-68
2022/07/15 04:03:56;;;;;;;;;;;;;;;17.18;72.20;98732.97;5064652;28;19939;-68
2022/07/15 04:06:22;;;;;;;;;;;;;;;17.24;71.57;98741.84;5065279;28;19935;-67
2022/07/15 04:08:49;;;;;;;;;;;;;;;17.25;71.48;98752.56;5064555;28;19928;-68
2022/07/15 04:11:15;;;;;;;;;;;;;;;17.21;71.36;98754.38;5064291;28;20275;-68
2022/07/15 04:13:41;;;;;;;;;;;;;;;17.21;71.55;98759.88;5065277;28;19928;-68
2022/07/15 04:16:07;;;;;;;;;;;;;;;17.22;71.49;98761.50;5065853;28;19932;-68
2022/07/15 04:18:33;;;;;;;;;;;;;;;17.18;71.81;98762.56;5063439;28;19928;-70
2022/07/15 04:20:59;;;;;;;;;;;;;;;17.12;71.91;98762.75;5070521;28;19928;-68
2022/07/15 04:23:25;;;;;;;;;;;;;;;17.13;72.06;98755.31;5085282;28;19932;-68
2022/07/15 04:25:53;;;;;;;;;;;;;;;17.12;71.87;98757.25;5085256;28;19935;-68
2022/07/15 04:28:18;;;;;;;;;;;;;;;17.14;71.95;98774.28;5085643;28;20125;-68
2022/07/15 04:30:45;;;;;;;;;;;;;;;17.17;71.64;98778.31;5083934;28;19981;-68
2022/07/15 04:33:11;;;;;;;;;;;;;;;17.16;71.51;98787.75;5087887;28;19928;-70
2022/07/15 04:35:40;;;;;;;;;;;;;;;17.21;71.43;98786.72;5084765;28;19951;-67
2022/07/15 04:38:07;;;;;;;;;;;;;;;17.26;71.32;98792.81;5084051;28;20310;-68
2022/07/15 04:40:33;;;;;;;;;;;;;;;17.25;71.18;98801.44;5084603;28;20053;-68
2022/07/15 04:43:03;;;;;;;;;;;;;;;17.23;71.12;98812.03;5084308;28;19950;-68
2022/07/15 04:45:29;;;;;;;;;;;;;;;17.26;71.16;98812.16;5082942;28;19935;-68
2022/07/15 04:47:56;;;;;;;;;;;;;;;17.30;71.17;98812.25;5087038;28;19973;-68
2022/07/15 04:50:46;;;;;;;;;;;;;;;17.38;70.96;98805.00;5083344;28;19928;-68
2022/07/15 04:53:12;;;;;;;;;;;;;;;17.41;70.16;98815.41;5080468;28;19955;-67
2022/07/15 04:55:38;;;;;;;;;;;;;;;17.43;70.37;98819.41;5066798;28;20394;-71
2022/07/15 04:58:05;;;;;;;;;;;;;;;17.50;70.51;98826.34;5087166;28;19932;-68
2022/07/15 05:00:32;;;;;;;;;;;;;;;17.52;70.27;98829.56;5065362;28;19928;-69
2022/07/15 05:02:58;;;;;;;;;;;;;;;17.52;70.06;98835.09;5082814;28;19943;-69
2022/07/15 05:05:26;;;;;;;;;;;;;;;17.50;69.60;98820.81;5058956;28;19979;-70
2022/07/15 05:07:52;;;;;;;;;;;;;;;17.53;69.95;98820.13;5029176;28;20475;-71
2022/07/15 05:10:18;;;;;;;;;;;;;;;17.59;69.89;98821.47;5064656;28;20031;-70
2022/07/15 05:12:51;;;;;;;;;;;;;;;17.72;69.32;98823.09;5062657;28;20391;-70
2022/07/15 05:15:18;;;;;;;;;;;;;;;17.80;68.81;98821.34;5065674;28;19935;-71
2022/07/15 05:17:44;;;;;;;;;;;;;;;17.84;68.51;98825.03;5063918;28;20023;-70
2022/07/15 05:20:16;;;;;;;;;;;;;;;17.91;68.03;98807.84;5063409;28;19929;-70
2022/07/15 05:22:42;;;;;;;;;;;;;;;18.02;68.43;98797.13;5048520;28;19928;-69
2022/07/15 05:25:09;;;;;;;;;;;;;;;18.14;67.61;98790.78;5069406;28;19981;-70
2022/07/15 05:27:36;;;;;;;;;;;;;;;18.26;67.31;98788.00;5065027;28;20338;-70
2022/07/15 05:30:03;;;;;;;;;;;;;;;18.36;66.99;98783.09;5082672;28;20325;-70
2022/07/15 05:32:32;;;;;;;;;;;;;;;18.43;66.85;98784.09;5081835;28;19997;-70
2022/07/15 05:35:02;;;;;;;;;;;;;;;18.53;65.74;98782.78;5065861;28;20245;-70
2022/07/15 05:37:28;;;;;;;;;;;;;;;18.46;66.25;98773.47;5042375;28;20313;-69
2022/07/15 05:39:55;;;;;;;;;;;;;;;18.57;65.60;98791.19;5044697;28;19929;-71
2022/07/15 05:42:44;;;;;;;;;;;;;;;18.63;65.29;98787.00;5042397;28;20382;-68
2022/07/15 05:45:10;;;;;;;;;;;;;;;18.67;64.58;98787.09;5041728;28;19935;-68
2022/07/15 05:47:48;;;;;;;;;;;;;;;18.68;64.52;98784.00;5058276;28;19960;-68
2022/07/15 05:50:14;;;;;;;;;;;;;;;18.71;64.24;98783.28;5044060;28;19934;-68
2022/07/15 05:52:40;;;;;;;;;;;;;;;18.80;63.39;98791.41;5040969;28;19952;-68
2022/07/15 05:55:06;;;;;;;;;;;;;;;18.81;63.48;98803.28;5045484;28;19936;-70
2022/07/15 05:57:32;;;;;;;;;;;;;;;18.86;63.43;98794.75;5051689;28;19929;-69
2022/07/15 05:59:59;;;;;;;;;;;;;;;18.92;62.55;98809.91;5025376;28;19974;-68
2022/07/15 06:02:30;;;;;;;;;;;;;;;18.98;62.40;98805.75;5025714;28;20002;-68
2022/07/15 06:04:58;;;;;;;;;;;;;;;19.12;62.19;98801.75;5044297;28;19975;-70
2022/07/15 06:07:24;;;;;;;;;;;;;;;19.33;61.47;98804.25;5048806;28;20299;-68
2022/07/15 06:09:51;;;;;;;;;;;;;;;19.25;61.38;98794.94;5059254;28;20306;-69
2022/07/15 06:12:19;;;;;;;;;;;;;;;19.29;60.94;98803.38;5052321;28;19964;-68
2022/07/15 06:14:45;;;;;;;;;;;;;;;19.35;60.03;98798.34;5054492;28;19960;-69
2022/07/15 06:17:15;;;;;;;;;;;;;;;19.35;59.74;98795.59;5032292;28;20295;-69
2022/07/15 06:19:41;;;;;;;;;;;;;;;19.44;59.35;98776.81;5069065;28;19942;-71
2022/07/15 06:22:09;;;;;;;;;;;;;;;19.62;59.14;98780.00;5056300;28;19928;-71
2022/07/15 06:24:34;;;;;;;;;;;;;;;19.77;58.44;98769.22;5058785;28;19929;-71
2022/07/15 06:27:00;;;;;;;;;;;;;;;19.81;57.62;98779.22;5053454;28;20342;-69
2022/07/15 06:29:26;;;;;;;;;;;;;;;19.78;57.84;98776.38;5054715;28;19991;-70
2022/07/15 06:31:56;;;;;;;;;;;;;;;19.96;57.83;98782.34;5055146;28;20135;-71
2022/07/15 06:34:22;;;;;;;;;;;;;;;20.16;57.02;98790.69;5081723;28;19928;-70
2022/07/15 06:36:48;;;;;;;;;;;;;;;20.21;56.79;98779.28;5082202;28;19974;-71
2022/07/15 06:39:15;;;;;;;;;;;;;;;20.42;56.37;98781.69;5084746;28;20403;-71
2022/07/15 06:41:44;;;;;;;;;;;;;;;20.48;55.40;98780.25;5065911;28;19929;-71
2022/07/15 06:44:11;;;;;;;;;;;;;;;20.57;55.14;98776.44;5030257;28;19936;-70
2022/07/15 06:46:52;;;;;;;;;;;;;;;20.60;54.65;98784.00;5050045;28;20008;-71
2022/07/15 06:49:18;;;;;;;;;;;;;;;20.63;54.68;98781.31;5062711;28;20460;-71
2022/07/15 06:51:44;;;;;;;;;;;;;;;20.73;54.63;98784.69;5063217;28;19928;-71
2022/07/15 06:54:11;;;;;;;;;;;;;;;20.91;54.42;98787.78;5067258;28;20034;-70
2022/07/15 06:56:39;;;;;;;;;;;;;;;21.04;53.20;98796.78;5080451;28;20359;-70
2022/07/15 06:59:05;;;;;;;;;;;;;;;21.15;52.67;98794.16;5069114;28;19933;-69
2022/07/15 07:01:32;;;;;;;;;;;;;;;21.09;51.88;98813.94;5039805;28;19929;-71
2022/07/15 07:03:58;;;;;;;;;;;;;;;21.06;52.49;98805.53;5060807;28;20457;-71
2022/07/15 07:06:25;;;;;;;;;;;;;;;21.14;52.13;98800.91;5056711;28;19928;-70
2022/07/15 07:08:52;;;;;;;;;;;;;;;21.36;51.76;98802.84;5052908;28;19932;-69
2022/07/15 07:11:18;;;;;;;;;;;;;;;21.50;51.76;98805.06;5058267;28;19928;-68
2022/07/15 07:13:45;;;;;;;;;;;;;;;21.22;52.25;98800.66;5062737;28;19964;-68
2022/07/15 07:16:12;;;;;;;;;;;;;;;20.88;52.20;98817.13;5069172;28;19929;-71
2022/07/15 07:18:37;;;;;;;;;;;;;;;20.91;52.45;98818.34;5059034;28;19929;-71
2022/07/15 07:21:03;;;;;;;;;;;;;;;21.17;52.10;98817.66;5063972;28;20012;-71
2022/07/15 07:23:30;;;;;;;;;;;;;;;21.50;51.49;98820.94;5062519;28;19932;-71
2022/07/15 07:25:57;;;;;;;;;;;;;;;21.61;51.47;98819.16;5069090;28;19936;-71
2022/07/15 07:28:22;;;;;;;;;;;;;;;21.65;51.04;98827.56;5041270;28;19935;-68
2022/07/15 07:30:52;;;;;;;;;;;;;;;21.57;51.16;98821.06;5058480;28;20323;-71
2022/07/15 07:33:18;;;;;;;;;;;;;;;21.68;51.14;98824.84;5058516;28;20419;-70
2022/07/15 07:35:44;;;;;;;;;;;;;;;21.88;49.19;98837.84;5055239;28;20644;-71
2022/07/15 07:38:10;;;;;;;;;;;;;;;21.93;48.33;98846.66;5058925;28;19951;-71
2022/07/15 07:40:35;;;;;;;;;;;;;;;21.87;47.40;98839.03;5045948;28;20781;-70
2022/07/15 07:43:01;;;;;;;;;;;;;;;21.77;47.66;98832.91;5064894;28;19987;-70
2022/07/15 07:45:30;;;;;;;;;;;;;;;21.81;48.46;98830.19;5049013;28;20331;-69
2022/07/15 07:47:57;;;;;;;;;;;;;;;22.16;47.90;98842.22;5061312;28;19940;-70
2022/07/15 07:50:23;;;;;;;;;;;;;;;22.17;48.13;98846.59;5073737;28;20216;-68
2022/07/15 07:52:49;;;;;;;;;;;;;;;22.35;47.01;98842.06;5065819;28;19929;-68
2022/07/15 07:55:15;;;;;;;;;;;;;;;22.48;46.77;98830.72;5064350;28;19935;-68
2022/07/15 07:57:47;;;;;;;;;;;;;;;22.33;46.80;98832.50;5075924;28;19928;-68
2022/07/15 08:00:14;;;;;;;;;;;;;;;22.27;46.58;98823.69;5065315;28;19928;-68
2022/07/15 08:02:39;;;;;;;;;;;;;;;22.32;45.93;98817.78;5061768;28;20173;-68
2022/07/15 08:05:08;;;;;;;;;;;;;;;22.18;46.57;98817.59;5068525;28;19943;-67
2022/07/15 08:07:35;;;;;;;;;;;;;;;22.32;46.61;98822.53;5077994;28;19989;-67
2022/07/15 08:10:01;;;;;;;;;;;;;;;22.48;46.73;98827.94;5064714;28;19935;-71
2022/07/15 08:12:28;;;;;;;;;;;;;;;22.84;45.81;98830.34;5059039;28;20051;-71
2022/07/15 08:14:54;;;;;;;;;;;;;;;23.34;43.10;98827.28;5063705;28;20502;-70
2022/07/15 08:17:20;;;;;;;;;;;;;;;23.89;42.17;98818.09;5043047;28;19935;-71
2022/07/15 08:19:46;;;;;;;;;;;;;;;24.51;39.99;98798.88;5064597;28;20319;-70
2022/07/15 08:22:14;;;;;;;;;;;;;;;24.53;39.81;98801.28;5060158;28;19928;-71
2022/07/15 08:24:39;;;;;;;;;;;;;;;24.39;39.99;98808.41;5068065;28;19928;-70
2022/07/15 08:27:05;;;;;;;;;;;;;;;24.56;38.04;98820.03;5065463;28;19928;-71
2022/07/15 08:29:31;;;;;;;;;;;;;;;24.60;37.93;98832.84;5067172;28;20410;-68
2022/07/15 08:31:57;;;;;;;;;;;;;;;24.28;38.92;98841.06;5057859;28;19954;-68
2022/07/15 08:34:23;;;;;;;;;;;;;;;23.74;40.21;98853.47;5045320;28;20039;-71
2022/07/15 08:36:49;;;;;;;;;;;;;;;23.31;41.01;98853.09;5065493;28;20382;-71
2022/07/15 08:39:16;;;;;;;;;;;;;;;23.18;41.79;98858.16;5064116;28;20415;-70
2022/07/15 08:41:42;;;;;;;;;;;;;;;23.35;41.09;98857.53;5062795;28;19928;-70
2022/07/15 08:44:08;;;;;;;;;;;;;;;23.35;40.52;98862.34;5061908;28;19933;-68
2022/07/15 08:46:35;;;;;;;;;;;;;;;23.86;39.72;98859.94;5070763;28;20035;-68
2022/07/15 08:49:04;;;;;;;;;;;;;;;24.80;37.82;98857.66;5060686;28;20430;-68
2022/07/15 08:51:30;;;;;;;;;;;;;;;25.40;37.09;98869.38;5063735;28;19970;-71
2022/07/15 08:53:56;;;;;;;;;;;;;;;25.39;37.23;98853.78;5068901;28;19971;-68
2022/07/15 08:56:24;;;;;;;;;;;;;;;25.70;36.11;98871.00;5060249;28;20446;-68
2022/07/15 08:58:50;;;;;;;;;;;;;;;25.91;36.61;98872.97;5056718;28;19932;-70
2022/07/15 09:01:15;;;;;;;;;;;;;;;25.29;36.99;98886.13;5061922;28;19933;-69
2022/07/15 09:03:41;;;;;;;;;;;;;;;24.85;37.57;98871.25;5061925;28;19997;-70
2022/07/15 09:06:07;;;;;;;;;;;;;;;25.26;37.35;98867.34;5062463;28;19928;-71
2022/07/15 09:08:34;;;;;;;;;;;;;;;25.55;36.13;98875.00;5061949;28;20407;-71
2022/07/15 09:11:01;;;;;;;;;;;;;;;26.09;35.58;98866.56;5061222;28;19933;-70
2022/07/15 09:13:30;;;;;;;;;;;;;;;26.40;34.41;98878.09;5065244;28;19932;-70
2022/07/15 09:15:56;;;;;;;;;;;;;;;26.57;33.58;98873.63;5068359;28;20366;-70
2022/07/15 09:18:23;;;;;;;;;;;;;;;26.72;32.93;98873.56;5054065;28;19935;-69
2022/07/15 09:20:50;;;;;;;;;;;;;;;26.01;34.18;98873.34;5060937;28;20466;-67
2022/07/15 09:23:20;;;;;;;;;;;;;;;26.01;33.86;98870.56;5061789;28;20031;-71
2022/07/15 09:25:47;;;;;;;;;;;;;;;26.33;33.11;98875.31;5043124;28;19929;-71
2022/07/15 09:28:13;;;;;;;;;;;;;;;25.19;34.19;98882.09;5066311;28;19938;-70
2022/07/15 09:33:34;;;;;;;;;;;;;;;23.84;37.53;98881.84;5041537;28;19932;-71
2022/07/15 09:36:05;;;;;;;;;;;;;;;25.09;34.81;98874.50;5058830;28;19935;-68
2022/07/15 09:38:32;;;;;;;;;;;;;;;26.10;33.43;98873.75;5063938;28;19929;-68
2022/07/15 09:40:58;;;;;;;;;;;;;;;26.56;32.98;98866.41;5061644;28;19940;-68
2022/07/15 09:43:24;;;;;;;;;;;;;;;27.24;30.75;98872.09;5060814;28;20014;-68
2022/07/15 09:45:57;;;;;;;;;;;;;;;27.97;29.42;98895.59;5043863;28;20418;-68
2022/07/15 09:48:24;;;;;;;;;;;;;;;27.55;29.92;98889.94;5060243;28;19928;-68
2022/07/15 09:50:50;;;;;;;;;;;;;;;28.15;29.32;98881.38;5062172;28;20031;-68
2022/07/15 09:53:16;;;;;;;;;;;;;;;28.36;29.04;98890.03;5063134;28;20031;-68
2022/07/15 09:55:42;;;;;;;;;;;;;;;29.04;26.66;98881.97;5057957;28;20383;-68
2022/07/15 09:58:09;;;;;;;;;;;;;;;28.76;27.31;98883.91;5057100;28;19943;-69
2022/07/15 10:00:34;;;;;;;;;;;;;;;28.56;26.64;98879.75;5064490;28;19936;-68
2022/07/15 10:03:02;;;;;;;;;;;;;;;28.03;28.09;98888.31;5066341;28;20342;-69
2022/07/15 10:05:28;;;;;;;;;;;;;;;26.96;29.40;98874.66;5059025;28;20467;-69
2022/07/15 10:07:56;;;;;;;;;;;;;;;27.30;28.71;98870.47;5062761;28;19928;-68
2022/07/15 10:10:25;;;;;;;;;;;;;;;27.45;28.66;98871.13;5061155;28;19929;-68
2022/07/15 10:12:57;;;;;;;;;;;;;;;27.12;29.48;98879.78;5065019;28;19989;-68
2022/07/15 10:15:29;;;;;;;;;;;;;;;27.91;28.45;98891.66;4706315;28;9999790;-71
2022/07/15 10:18:09;;;;;;;;;;;;;;;28.19;28.32;98877.75;5012604;28;19938;-68
2022/07/15 10:20:46;;;;;;;;;;;;;;;27.98;28.86;98876.75;5049521;28;20365;-69
2022/07/15 10:23:21;;;;;;;;;;;;;;;29.03;27.64;98883.97;5058274;28;19933;-71
2022/07/15 10:25:58;;;;;;;;;;;;;;;30.08;25.79;98890.78;5071606;28;20015;-72
2022/07/15 10:28:32;;;;;;;;;;;;;;;29.70;26.15;98886.19;5026606;28;19959;-68
2022/07/15 10:31:15;;;;;;;;;;;;;;;29.64;26.35;98870.22;5058311;28;20414;-70
2022/07/15 10:34:03;;;;;;;;;;;;;;;30.02;25.95;98872.78;5034683;28;19928;-70
2022/07/15 10:36:37;;;;;;;;;;;;;;;29.48;25.83;98868.84;5038853;28;19935;-69
2022/07/15 10:39:04;;;;;;;;;;;;;;;30.22;25.15;98867.19;5053917;28;20001;-71
2022/07/15 10:41:47;;;;;;;;;;;;;;;30.75;24.65;98877.84;5052631;28;19928;-69
2022/07/15 10:44:13;;;;;;;;;;;;;;;29.76;25.44;98874.44;5040180;28;20018;-71
2022/07/15 10:46:39;;;;;;;;;;;;;;;28.94;26.67;98859.19;5057224;28;19936;-72
2022/07/15 10:49:23;;;;;;;;;;;;;;;28.22;27.49;98879.72;5055958;28;19932;-72
2022/07/15 10:51:51;;;;;;;;;;;;;;;28.13;27.88;98883.00;5061189;28;19950;-68
2022/07/15 10:54:43;;;;;;;;;;;;;;;27.98;27.67;98883.13;5060706;28;19928;-69
2022/07/15 10:57:10;;;;;;;;;;;;;;;28.18;27.39;98885.41;4993595;28;19956;-71
2022/07/15 10:59:37;;;;;;;;;;;;;;;27.11;29.04;98885.81;4707088;28;10000201;-71
2022/07/15 11:02:16;;;;;;;;;;;;;;;26.48;30.35;98892.88;5064787;28;20250;-71
2022/07/15 11:04:44;;;;;;;;;;;;;;;25.96;31.59;98890.56;5050336;28;19944;-71
2022/07/15 11:07:23;;;;;;;;;;;;;;;25.38;32.59;98902.53;5067436;28;19928;-71
2022/07/15 11:09:50;;;;;;;;;;;;;;;24.87;33.57;98899.59;5066498;28;19928;-71
2022/07/15 11:12:17;;;;;;;;;;;;;;;24.72;34.16;98897.91;5066856;28;19932;-70
2022/07/15 11:14:48;;;;;;;;;;;;;;;24.61;34.82;98911.84;5046169;28;19928;-67
2022/07/15 11:17:16;;;;;;;;;;;;;;;24.32;35.12;98906.91;5069806;28;19928;-68
2022/07/15 11:19:45;;;;;;;;;;;;;;;24.11;35.58;98909.56;5063741;28;19936;-67
2022/07/15 11:22:11;;;;;;;;;;;;;;;24.05;36.32;98907.13;5074352;28;19932;-68
2022/07/15 11:24:38;;;;;;;;;;;;;;;25.35;34.46;98903.31;5066396;28;19957;-68
2022/07/15 11:27:04;;;;;;;;;;;;;;;27.27;31.41;98902.16;5066675;28;21167;-69
2022/07/15 11:29:42;;;;;;;;;;;;;;;27.77;30.59;98908.63;5038953;28;20399;-71
2022/07/15 11:32:08;;;;;;;;;;;;;;;29.57;28.15;98904.91;5053895;28;20220;-68
2022/07/15 11:34:41;;;;;;;;;;;;;;;30.24;26.93;98892.13;5057649;28;20090;-68
2022/07/15 11:37:07;;;;;;;;;;;;;;;30.91;26.35;98901.69;5065979;28;20521;-67
2022/07/15 11:39:38;;;;;;;;;;;;;;;32.36;24.77;98901.03;5062389;28;19947;-68
2022/07/15 11:44:50;;;;;;;;;;;;;;;32.61;23.58;98897.50;3307028;28;10001075;-68
2022/07/15 11:47:17;;;;;;;;;;;;;;;30.75;26.11;98896.78;4704296;28;9999703;-71
2022/07/15 11:49:43;;;;;;;;;;;;;;;28.75;29.08;98904.81;5055903;28;20327;-68
2022/07/15 11:52:10;;;;;;;;;;;;;;;27.45;30.84;98902.81;5059223;28;20395;-68
2022/07/15 11:54:38;;;;;;;;;;;;;;;26.31;32.47;98911.34;5063491;28;20399;-69
2022/07/15 11:57:06;;;;;;;;;;;;;;;25.68;33.94;98920.97;5064595;28;19929;-68
2022/07/15 11:59:32;;;;;;;;;;;;;;;25.03;35.31;98924.44;5066163;28;19935;-68
2022/07/15 12:02:01;;;;;;;;;;;;;;;24.60;36.49;98922.22;5063636;28;19935;-68
2022/07/15 12:08:32;;;;;;;;;;;;;;;24.57;36.25;98930.59;4007489;28;10000697;-68
2022/07/15 12:11:02;;;;;;;;;;;;;;;24.74;36.09;98934.66;5058574;28;19929;-71
2022/07/15 12:13:40;;;;;;;;;;;;;;;25.14;35.68;98929.25;5063519;28;19951;-71
2022/07/15 12:16:06;;;;;;;;;;;;;;;27.73;31.14;98928.28;5030955;28;20349;-71
2022/07/15 12:22:29;;;;;;;;;;;;;;;28.98;28.98;98927.44;4014242;28;10001300;-71
2022/07/15 12:24:55;;;;;;;;;;;;;;;28.87;28.53;98932.41;5049395;28;20367;-71
2022/07/15 12:27:32;;;;;;;;;;;;;;;28.80;28.27;98930.50;5059300;28;19954;-70
2022/07/15 12:30:01;;;;;;;;;;;;;;;27.21;30.86;98929.00;5068545;28;19960;-70
2022/07/15 12:32:27;;;;;;;;;;;;;;;26.22;31.92;98944.56;5069165;28;19955;-71
2022/07/15 12:34:54;;;;;;;;;;;;;;;26.65;32.07;98941.66;5048436;28;19928;-70
2022/07/15 12:37:21;;;;;;;;;;;;;;;26.99;31.32;98943.94;5063084;28;19928;-68
2022/07/15 12:39:57;;;;;;;;;;;;;;;27.98;29.13;98921.69;5062606;28;20019;-71
2022/07/15 12:42:25;;;;;;;;;;;;;;;28.94;27.43;98942.75;5064953;28;20305;-70
2022/07/15 12:45:11;;;;;;;;;;;;;;;27.81;29.14;98935.47;5062072;28;19932;-67
2022/07/15 12:47:55;;;;;;;;;;;;;;;27.09;30.26;98947.13;5055982;28;19932;-68
2022/07/15 12:50:21;;;;;;;;;;;;;;;26.10;31.76;98934.53;5063023;28;19932;-68
2022/07/15 12:52:47;;;;;;;;;;;;;;;25.45;33.27;98940.91;5062072;28;19935;-68
2022/07/15 12:55:14;;;;;;;;;;;;;;;24.99;34.38;98948.78;5053877;28;20428;-68
2022/07/15 12:57:40;;;;;;;;;;;;;;;25.88;33.58;98938.16;5064274;28;19928;-68
2022/07/15 13:00:16;;;;;;;;;;;;;;;27.76;30.12;98938.69;5065374;28;20485;-67
2022/07/15 13:02:56;;;;;;;;;;;;;;;28.65;28.27;98934.66;5064382;28;19936;-68
2022/07/15 13:05:23;;;;;;;;;;;;;;;28.05;29.44;98948.91;5066236;28;19928;-67